This is the latest recevied weather packets stored in our database for station/object F6JSP-13. If no packets are shown the sender has not sent any weather packets the latest 10 day(s).
| Time | Temp. | Humidity | Pressure | Rain* | Wind** | Luminosity | Snow |
|---|---|---|---|---|---|---|---|
| 1777987806 | 13.89° C | 99% | 1006.3 hPa | 0 mm | - | 208 W/m² | - |
| 1777986606 | 13.33° C | 99% | 1006.4 hPa | 0 mm | - | 202 W/m² | - |
| 1777985705 | 13.33° C | 99% | 1006.3 hPa | 0.25 mm | - | 136 W/m² | - |
| 1777984506 | 13.33° C | 99% | 1006.4 hPa | 0.25 mm | - | 126 W/m² | - |
| 1777983605 | 12.78° C | 99% | 1006.2 hPa | 0.51 mm | - | 264 W/m² | - |
| 1777981205 | 12.78° C | 99% | 1006.3 hPa | 0.51 mm | - | 98 W/m² | - |
| 1777980305 | 12.22° C | 99% | 1006.3 hPa | 0.25 mm | - | 117 W/m² | - |
| 1777979106 | 12.78° C | 99% | 1006.6 hPa | 0 mm | - | 159 W/m² | - |
| 1777978205 | 12.22° C | 99% | 1006.6 hPa | 0 mm | - | 77 W/m² | - |
| 1777971605 | 12.22° C | 99% | 1006.3 hPa | 0.25 mm | - | 43 W/m² | - |
| 1777971006 | 12.22° C | 99% | 1006.3 hPa | 0 mm | - | 42 W/m² | - |
| 1777970105 | 12.22° C | 99% | 1006.2 hPa | 0.25 mm | - | 48 W/m² | - |
| 1777968005 | 12.22° C | 99% | 1006.5 hPa | 1.02 mm | - | 32 W/m² | - |
| 1777966505 | 12.22° C | 99% | 1006.4 hPa | 1.27 mm | - | 22 W/m² | - |
| 1777964705 | 12.22° C | 99% | 1006.5 hPa | 2.29 mm | - | 24 W/m² | - |
| 1777963205 | 12.22° C | 99% | 1006.3 hPa | 2.54 mm | - | 40 W/m² | - |
| 1777962305 | 12.22° C | 99% | 1006.4 hPa | 2.54 mm | - | 18 W/m² | - |
| 1777960505 | 12.22° C | 99% | 1006.4 hPa | 1.02 mm | - | 2 W/m² | - |
| 1777956904 | 12.22° C | 99% | 1006.4 hPa | 0 mm | - | 0 W/m² | - |
| 1777954504 | 12.22° C | 99% | 1006.7 hPa | 0 mm | - | 0 W/m² | - |
| 1777953905 | 12.22° C | 99% | 1006.7 hPa | 0 mm | - | 0 W/m² | - |
| 1777953305 | 12.22° C | 99% | 1006.4 hPa | 0 mm | - | 0 W/m² | - |
| 1777944305 | 12.22° C | 99% | 1007.6 hPa | 3.05 mm | - | 0 W/m² | - |
| 1777943405 | 12.78° C | 99% | 1007.9 hPa | 3.05 mm | - | 0 W/m² | - |
| 1777942205 | 12.78° C | 99% | 1008 hPa | 3.56 mm | - | 0 W/m² | - |
* Rain latest hour (hover to see other rain measurements)
** Current wind speed in m/s (hover to see current wind gust speed)